首页
METAR-TAF:

METAR-TAF

机场 :

艾爾帕索, 得克萨斯州, 美国

纬度: 31-48-40N, 经度: 106-22-33W, 海拔: 1206米

当前天气观测

该预报发布于14分钟前的02:51 UTC
风速3节,风向西
温度 13°C
湿度 47%
气压 1017 hPa
能見度: 16.1公里
少量云层高于25000英尺

METAR: KELP 230251Z 28003KT 10SM FEW250 13/02 A3004 RMK AO2 SLP138 T01280022 51021

时间: 21:05 (03:05 UTC)

预报

该预报发布于3小时和29分钟前的23:36 UTC
预报有效从23日的 00点(UTC)到 23日的 24点(UTC)
风速10节,风向西转西北
能見度: 10公里
少量云层高于25000英尺
从 23日的 0500点(UTC)
风速5节,风向西北
能見度: 10公里
少量云层高于25000英尺

TAF: KELP 222336Z 2300/2324 30010KT P6SM FEW250 FM230500 32005KT P6SM FEW250

超过4000个机场的气象观测和天气预报(METAR&TAF报告)。

可查询的气象台以黄色和红色小点在地图上表示。

将鼠标移到小点上方,可查看气象台名称。

然后点击查看天气观测和预报。

如需切换地图:点击带黑十字的绿色按钮放大地图;点击带横线的绿色按钮缩小地图;或者点击绿色箭头查看邻近地区的地图。


METAR-TAF: